createdAt,value
2022-09-13T00:00:35.133Z,76.23
2022-09-13T00:03:05.844Z,76.08
2022-09-13T00:05:37.309Z,76.27
2022-09-13T00:08:08.602Z,76.15
2022-09-13T00:10:40.884Z,76.28
2022-09-13T00:13:13.495Z,76.68
2022-09-13T00:15:46.127Z,76.14
2022-09-13T00:18:17.400Z,76.07
2022-09-13T00:20:48.046Z,76.92
2022-09-13T00:23:18.355Z,76.67
2022-09-13T00:25:48.645Z,76.56
2022-09-13T00:28:19.029Z,76.21
2022-09-13T00:30:49.389Z,76.26
2022-09-13T00:33:19.870Z,76.12
2022-09-13T00:35:50.178Z,76.24
2022-09-13T00:38:20.490Z,75.94
2022-09-13T00:40:50.888Z,76.41
2022-09-13T00:43:24.819Z,76.34
2022-09-13T00:45:55.319Z,76.39
2022-09-13T00:48:25.798Z,76.33
2022-09-13T00:50:57.631Z,76.65
2022-09-13T00:53:33.852Z,76.48
2022-09-13T00:56:10.128Z,76.53
2022-09-13T00:58:46.512Z,76.42
2022-09-13T01:01:18.788Z,76.52
2022-09-13T01:03:50.592Z,76.51
2022-09-13T01:06:23.996Z,76.40
2022-09-13T01:08:54.855Z,76.32
2022-09-13T01:11:37.330Z,76.52
2022-09-13T01:14:09.871Z,76.48
2022-09-13T01:16:40.233Z,76.41
2022-09-13T01:19:10.665Z,76.54
2022-09-13T01:21:49.759Z,76.46
2022-09-13T01:24:28.599Z,76.31
2022-09-13T01:27:17.197Z,76.41
2022-09-13T01:30:12.330Z,76.45
2022-09-13T01:33:06.748Z,76.40
2022-09-13T01:35:52.067Z,76.50
2022-09-13T01:38:44.989Z,76.70
2022-09-13T01:41:27.255Z,77.15
2022-09-13T01:44:25.476Z,76.93
2022-09-13T01:47:21.297Z,77.03
2022-09-13T01:49:57.888Z,76.44
2022-09-13T01:52:51.034Z,76.76
2022-09-13T01:55:33.939Z,76.95
2022-09-13T01:58:25.772Z,77.03
2022-09-13T02:01:10.575Z,77.10
2022-09-13T02:03:55.957Z,77.15
2022-09-13T02:06:29.367Z,76.98
2022-09-13T02:09:05.458Z,77.55
2022-09-13T02:11:38.147Z,77.57
2022-09-13T02:14:20.621Z,77.20
2022-09-13T02:16:56.637Z,77.74
2022-09-13T02:19:38.899Z,77.82
2022-09-13T02:22:11.607Z,78.11
2022-09-13T02:24:45.313Z,78.12
2022-09-13T02:27:22.035Z,78.13
2022-09-13T02:29:55.975Z,77.74
2022-09-13T02:32:29.998Z,77.74
2022-09-13T02:35:24.769Z,77.96
2022-09-13T02:38:15.175Z,78.03
2022-09-13T02:40:49.503Z,78.60
2022-09-13T02:43:25.977Z,78.35
2022-09-13T02:46:17.143Z,78.54
2022-09-13T02:48:53.486Z,78.50
2022-09-13T02:51:26.848Z,78.31
2022-09-13T02:54:12.307Z,78.29
2022-09-13T02:56:57.452Z,78.06
2022-09-13T02:59:28.291Z,77.88
2022-09-13T03:02:07.624Z,77.63
2022-09-13T03:04:38.053Z,77.74
2022-09-13T03:07:13.190Z,77.89
2022-09-13T03:09:49.970Z,77.97
2022-09-13T03:12:38.299Z,77.94
2022-09-13T03:15:11.770Z,77.99
2022-09-13T03:17:58.262Z,77.71
2022-09-13T03:20:55.616Z,77.89
2022-09-13T03:23:37.804Z,77.97
2022-09-13T03:26:28.030Z,78.20
2022-09-13T03:29:07.167Z,77.93
2022-09-13T03:31:52.394Z,78.29
2022-09-13T03:34:45.413Z,78.49
2022-09-13T03:37:18.873Z,78.73
2022-09-13T03:40:08.967Z,78.51
2022-09-13T03:42:45.016Z,78.42
2022-09-13T03:45:18.550Z,78.57
2022-09-13T03:47:50.680Z,78.69
2022-09-13T03:50:24.109Z,78.27
2022-09-13T03:52:57.543Z,78.71
2022-09-13T03:55:29.797Z,78.72
2022-09-13T03:58:01.181Z,78.67
2022-09-13T04:00:32.032Z,78.81
2022-09-13T04:03:02.340Z,78.97
2022-09-13T04:05:34.472Z,78.60
2022-09-13T04:08:06.025Z,78.95
2022-09-13T04:10:37.823Z,78.55
2022-09-13T04:13:08.854Z,78.38
2022-09-13T04:15:39.252Z,78.45
2022-09-13T04:18:10.970Z,78.36
2022-09-13T04:20:41.310Z,78.34
2022-09-13T04:23:11.962Z,78.48
2022-09-13T04:25:42.263Z,78.57
2022-09-13T04:28:12.599Z,78.31
2022-09-13T04:30:48.088Z,78.17
2022-09-13T04:33:18.483Z,78.55
2022-09-13T04:35:49.146Z,78.31
2022-09-13T04:38:19.843Z,78.27
2022-09-13T04:40:55.131Z,78.30
2022-09-13T04:43:25.807Z,78.52
2022-09-13T04:45:58.057Z,78.58
2022-09-13T04:48:28.771Z,78.49
2022-09-13T04:51:05.849Z,78.58
2022-09-13T04:53:37.330Z,78.46
2022-09-13T04:56:09.395Z,78.53
2022-09-13T04:58:39.713Z,78.41
2022-09-13T05:01:11.133Z,77.73
2022-09-13T05:03:41.556Z,77.99
2022-09-13T05:06:15.126Z,78.05
2022-09-13T05:08:47.637Z,77.73
2022-09-13T05:11:18.385Z,77.94
2022-09-13T05:13:57.538Z,77.85
2022-09-13T05:16:30.788Z,78.00
2022-09-13T05:19:02.040Z,77.79
2022-09-13T05:21:32.608Z,77.56
2022-09-13T05:24:03.105Z,77.55
2022-09-13T05:26:33.606Z,77.61
2022-09-13T05:29:04.772Z,77.73
2022-09-13T05:31:40.794Z,77.61
2022-09-13T05:34:14.234Z,77.64
2022-09-13T05:36:45.093Z,77.55
2022-09-13T05:39:32.079Z,77.75
2022-09-13T05:41:50.873Z,77.76
2022-09-13T05:44:21.185Z,77.81
2022-09-13T05:46:51.668Z,77.92
2022-09-13T05:49:22.283Z,78.47
2022-09-13T05:51:52.684Z,78.63
2022-09-13T05:54:24.416Z,79.43
2022-09-13T05:56:56.398Z,80.44
2022-09-13T05:59:26.742Z,82.20
2022-09-13T06:04:59.204Z,84.53
2022-09-13T06:07:29.685Z,84.92
2022-09-13T06:10:00.056Z,85.77
2022-09-13T06:12:30.553Z,87.04
2022-09-13T06:15:00.934Z,87.54
2022-09-13T06:17:31.345Z,88.46
2022-09-13T06:20:01.733Z,88.01
2022-09-13T06:22:33.743Z,88.20
2022-09-13T06:25:05.282Z,88.02
2022-09-13T06:27:35.876Z,87.97
2022-09-13T06:30:08.721Z,88.54
2022-09-13T06:32:42.276Z,88.77
2022-09-13T06:35:14.506Z,88.59
2022-09-13T06:37:45.098Z,88.24
2022-09-13T06:40:17.572Z,88.07
2022-09-13T06:42:49.272Z,88.16
2022-09-13T06:45:19.768Z,88.57
2022-09-13T06:47:50.228Z,88.70
2022-09-13T06:50:20.605Z,88.65
2022-09-13T06:52:51.083Z,88.90
2022-09-13T06:55:22.110Z,88.62
2022-09-13T06:57:52.653Z,88.89
2022-09-13T07:00:23.007Z,89.10
2022-09-13T07:02:53.969Z,89.11
2022-09-13T07:05:24.347Z,88.13
2022-09-13T07:07:56.421Z,87.86
2022-09-13T07:10:26.757Z,87.73
2022-09-13T07:12:57.094Z,87.27
2022-09-13T07:15:27.411Z,87.38
2022-09-13T07:17:57.947Z,87.42
2022-09-13T07:20:28.277Z,87.36
2022-09-13T07:22:58.794Z,86.78
2022-09-13T07:25:29.471Z,87.48
2022-09-13T07:28:00.001Z,86.92
2022-09-13T07:30:30.315Z,86.67
2022-09-13T07:33:00.753Z,86.59
2022-09-13T07:35:31.084Z,86.76
2022-09-13T07:38:01.387Z,86.49
2022-09-13T07:40:33.101Z,85.79
2022-09-13T07:43:03.555Z,85.84
2022-09-13T07:45:34.369Z,85.76
2022-09-13T07:48:04.802Z,85.42
2022-09-13T07:50:35.270Z,85.33
2022-09-13T07:53:05.586Z,85.01
2022-09-13T07:55:35.971Z,85.05
2022-09-13T07:58:06.440Z,84.97
2022-09-13T08:00:36.842Z,83.94
2022-09-13T08:03:08.233Z,83.59
2022-09-13T08:05:42.243Z,83.83
2022-09-13T08:08:12.623Z,83.48
2022-09-13T08:10:46.343Z,84.35
2022-09-13T08:13:17.310Z,83.26
2022-09-13T08:15:48.563Z,82.80
2022-09-13T08:18:20.197Z,82.55
2022-09-13T08:20:50.613Z,82.03
2022-09-13T08:23:20.954Z,80.64
2022-09-13T08:25:51.378Z,81.42
2022-09-13T08:28:27.362Z,81.56
2022-09-13T08:30:55.552Z,80.43
2022-09-13T08:33:26.020Z,80.94
2022-09-13T08:35:58.118Z,81.09
2022-09-13T08:38:29.443Z,80.93
2022-09-13T08:41:06.385Z,80.49
2022-09-13T08:43:42.805Z,80.07
2022-09-13T08:46:28.671Z,80.39
2022-09-13T08:49:02.279Z,80.01
2022-09-13T08:51:47.821Z,80.05
2022-09-13T08:54:20.230Z,79.51
2022-09-13T08:57:22.142Z,78.98
2022-09-13T09:00:16.765Z,78.61
2022-09-13T09:02:58.078Z,79.48
2022-09-13T09:05:30.781Z,78.08
2022-09-13T09:08:13.465Z,78.34
2022-09-13T09:10:49.757Z,78.73
2022-09-13T09:13:38.831Z,77.92
2022-09-13T09:16:27.498Z,77.68
2022-09-13T09:19:01.016Z,77.74
2022-09-13T09:21:32.281Z,77.46
2022-09-13T09:24:05.436Z,76.29
2022-09-13T09:26:35.907Z,75.38
2022-09-13T09:29:24.851Z,75.14
2022-09-13T09:31:59.630Z,74.66
2022-09-13T09:35:03.202Z,74.61
2022-09-13T09:37:36.996Z,75.13
2022-09-13T09:40:10.359Z,74.92
2022-09-13T09:42:43.906Z,73.95
2022-09-13T09:45:29.519Z,74.06
2022-09-13T09:48:03.400Z,71.84
2022-09-13T09:50:36.851Z,70.38
2022-09-13T09:53:15.923Z,71.26
2022-09-13T09:55:55.284Z,72.29
2022-09-13T09:58:43.100Z,71.11
2022-09-13T10:01:22.478Z,70.91
2022-09-13T10:04:04.945Z,70.85
2022-09-13T10:06:37.810Z,72.96
2022-09-13T10:09:17.133Z,70.22
2022-09-13T10:11:58.357Z,68.88
2022-09-13T10:14:46.200Z,69.66
2022-09-13T10:17:19.636Z,69.25
2022-09-13T10:20:02.080Z,68.60
2022-09-13T10:22:33.872Z,69.47
2022-09-13T10:25:21.362Z,70.00
2022-09-13T10:27:54.725Z,71.10
2022-09-13T10:30:43.490Z,70.67
2022-09-13T10:33:35.339Z,70.86
2022-09-13T10:36:08.760Z,71.67
2022-09-13T10:38:47.501Z,72.56
2022-09-13T10:41:22.920Z,72.40
2022-09-13T10:44:01.250Z,72.94
2022-09-13T10:46:36.818Z,73.76
2022-09-13T10:49:07.141Z,73.39
2022-09-13T10:51:38.925Z,72.88
2022-09-13T10:54:26.185Z,73.97
2022-09-13T10:56:56.581Z,74.04
2022-09-13T10:59:29.966Z,73.57
2022-09-13T11:02:28.770Z,73.96
2022-09-13T11:05:23.636Z,75.11
2022-09-13T11:08:05.426Z,74.44
2022-09-13T11:10:41.753Z,74.52
2022-09-13T11:13:27.393Z,75.86
2022-09-13T11:16:10.111Z,74.58
2022-09-13T11:18:43.624Z,75.08
2022-09-13T11:21:19.789Z,74.79
2022-09-13T11:23:56.340Z,75.00
2022-09-13T11:26:47.938Z,74.28
2022-09-13T11:29:41.075Z,74.75
2022-09-13T11:32:17.057Z,74.58
2022-09-13T11:35:02.351Z,74.98
2022-09-13T11:37:38.689Z,74.65
2022-09-13T11:40:14.070Z,75.44
2022-09-13T11:43:01.890Z,75.10
2022-09-13T11:45:41.326Z,75.16
2022-09-13T11:48:48.501Z,75.45
2022-09-13T11:51:27.771Z,75.86
2022-09-13T11:54:24.044Z,75.82
2022-09-13T11:57:00.313Z,76.16
2022-09-13T11:59:36.477Z,77.25
2022-09-13T12:02:12.404Z,76.92
2022-09-13T12:05:18.433Z,78.21
2022-09-13T12:07:38.569Z,79.40
2022-09-13T12:10:35.896Z,79.54
2022-09-13T12:13:09.376Z,80.18
2022-09-13T12:15:42.616Z,79.98
2022-09-13T12:18:31.266Z,80.64
2022-09-13T12:21:08.848Z,81.51
2022-09-13T12:23:42.350Z,82.08
2022-09-13T12:26:37.196Z,81.63
2022-09-13T12:29:16.635Z,81.65
2022-09-13T12:31:47.241Z,82.30
2022-09-13T12:34:45.128Z,80.85
2022-09-13T12:37:27.802Z,81.14
2022-09-13T12:40:04.395Z,81.08
2022-09-13T12:42:38.146Z,81.19
2022-09-13T12:45:20.571Z,81.27
2022-09-13T12:48:02.623Z,80.61
2022-09-13T12:51:08.339Z,80.56
2022-09-13T12:54:09.591Z,79.51
2022-09-13T12:57:08.945Z,79.78
2022-09-13T13:00:04.129Z,79.43
2022-09-13T13:02:38.006Z,80.03
2022-09-13T13:05:27.898Z,81.06
2022-09-13T13:08:07.199Z,81.33
2022-09-13T13:10:39.583Z,81.99
2022-09-13T13:13:25.422Z,80.97
2022-09-13T13:15:59.275Z,80.83
2022-09-13T13:18:32.593Z,81.15
2022-09-13T13:21:06.116Z,81.97
2022-09-13T13:23:41.163Z,81.65
2022-09-13T13:26:14.554Z,82.06
2022-09-13T13:28:49.651Z,81.61
2022-09-13T13:31:30.927Z,81.71
2022-09-13T13:34:11.076Z,82.02
2022-09-13T13:36:44.788Z,80.76
2022-09-13T13:39:26.957Z,79.24
2022-09-13T13:41:59.477Z,78.79
2022-09-13T13:44:32.866Z,76.89
2022-09-13T13:47:13.206Z,75.34
2022-09-13T13:49:52.446Z,74.14
2022-09-13T13:52:25.946Z,73.33
2022-09-13T13:55:16.091Z,74.03
2022-09-13T13:57:52.116Z,74.06
2022-09-13T14:00:25.493Z,74.02
2022-09-13T14:02:58.960Z,74.49
2022-09-13T14:05:47.261Z,74.79
2022-09-13T14:08:40.131Z,75.45
2022-09-13T14:11:49.284Z,75.92
2022-09-13T14:14:54.475Z,75.56
2022-09-13T14:17:39.637Z,74.84
2022-09-13T14:20:13.548Z,74.92
2022-09-13T14:22:44.128Z,74.91
2022-09-13T14:25:23.706Z,74.66
2022-09-13T14:28:01.424Z,74.70
2022-09-13T14:30:34.946Z,74.80
2022-09-13T14:33:07.960Z,75.67
2022-09-13T14:35:40.374Z,75.54
2022-09-13T14:38:30.488Z,76.14
2022-09-13T14:41:13.313Z,76.27
2022-09-13T14:43:45.271Z,76.49
2022-09-13T14:46:27.919Z,76.04
2022-09-13T14:49:07.739Z,75.32
2022-09-13T14:51:47.387Z,75.07
2022-09-13T14:54:21.611Z,76.03
2022-09-13T14:56:57.991Z,75.61
2022-09-13T14:59:31.757Z,75.15
2022-09-13T15:02:26.472Z,75.16
2022-09-13T15:05:00.754Z,75.40
2022-09-13T15:07:39.560Z,75.81
2022-09-13T15:10:22.243Z,75.91
2022-09-13T15:12:58.351Z,75.95
2022-09-13T15:15:34.672Z,74.68
2022-09-13T15:18:08.174Z,74.84
2022-09-13T15:21:04.275Z,75.48
2022-09-13T15:23:41.518Z,75.81
2022-09-13T15:26:14.483Z,75.51
2022-09-13T15:29:00.595Z,75.77
2022-09-13T15:31:33.271Z,75.88
2022-09-13T15:34:22.125Z,76.16
2022-09-13T15:37:04.775Z,75.75
2022-09-13T15:39:48.321Z,76.12
2022-09-13T15:42:19.552Z,76.96
2022-09-13T15:45:00.932Z,76.78
2022-09-13T15:47:26.479Z,76.10
2022-09-13T15:49:57.227Z,76.15
2022-09-13T15:52:27.562Z,76.59
2022-09-13T15:54:57.951Z,76.88
2022-09-13T15:57:31.043Z,76.92
2022-09-13T16:00:06.400Z,76.78
2022-09-13T16:02:36.114Z,77.79
2022-09-13T16:05:08.596Z,77.80
2022-09-13T16:07:42.285Z,77.23
2022-09-13T16:10:18.846Z,77.26
2022-09-13T16:12:49.573Z,77.48
2022-09-13T16:15:20.185Z,77.33
2022-09-13T16:17:50.487Z,77.48
2022-09-13T16:20:21.574Z,77.29
2022-09-13T16:22:51.946Z,77.99
2022-09-13T16:25:22.738Z,77.01
2022-09-13T16:27:54.720Z,77.53
2022-09-13T16:30:25.435Z,77.42
2022-09-13T16:32:55.806Z,77.62
2022-09-13T16:35:29.797Z,77.32
2022-09-13T16:38:00.265Z,77.74
2022-09-13T16:40:30.683Z,78.23
2022-09-13T16:43:01.148Z,78.64
2022-09-13T16:45:31.625Z,78.81
2022-09-13T16:48:02.027Z,79.48
2022-09-13T16:50:34.946Z,79.27
2022-09-13T16:53:04.553Z,79.24
2022-09-13T16:55:35.209Z,79.12
2022-09-13T16:58:05.721Z,79.52
2022-09-13T17:00:36.102Z,79.53
2022-09-13T17:03:06.578Z,79.84
2022-09-13T17:05:37.005Z,80.12
2022-09-13T17:08:07.311Z,80.26
2022-09-13T17:10:39.171Z,80.61
2022-09-13T17:13:12.051Z,81.08
2022-09-13T17:15:43.270Z,81.05
2022-09-13T17:18:13.635Z,81.32
2022-09-13T17:20:51.527Z,81.02
2022-09-13T17:23:21.915Z,81.21
2022-09-13T17:25:52.976Z,81.64
2022-09-13T17:28:23.284Z,81.31
2022-09-13T17:30:58.412Z,81.29
2022-09-13T17:33:25.724Z,80.98
2022-09-13T17:36:04.753Z,81.02
2022-09-13T17:38:37.170Z,80.94
2022-09-13T17:41:12.981Z,80.86
2022-09-13T17:43:44.353Z,81.19
2022-09-13T17:46:17.901Z,81.62
2022-09-13T17:48:50.782Z,81.92
2022-09-13T17:51:24.056Z,81.23
2022-09-13T17:53:58.599Z,81.22
2022-09-13T17:56:37.705Z,81.60
2022-09-13T17:59:11.121Z,81.53
2022-09-13T18:01:44.186Z,81.73
2022-09-13T18:04:16.394Z,81.65
2022-09-13T18:06:46.847Z,81.72
2022-09-13T18:09:18.248Z,81.62
2022-09-13T18:11:48.971Z,82.02
2022-09-13T18:14:20.479Z,81.98
2022-09-13T18:16:52.648Z,81.98
2022-09-13T18:19:44.261Z,82.29
2022-09-13T18:21:56.391Z,82.35
2022-09-13T18:24:26.911Z,82.78
2022-09-13T18:26:57.359Z,82.34
2022-09-13T18:29:29.733Z,82.69
2022-09-13T18:32:00.320Z,82.85
2022-09-13T18:34:30.715Z,82.15
2022-09-13T18:37:01.021Z,82.67
2022-09-13T18:39:31.594Z,82.58
2022-09-13T18:42:01.927Z,82.00
2022-09-13T18:44:34.028Z,82.32
2022-09-13T18:47:05.145Z,82.26
2022-09-13T18:49:35.461Z,82.36
2022-09-13T18:52:06.118Z,82.46
2022-09-13T18:54:36.545Z,82.52
2022-09-13T18:57:06.899Z,82.86
2022-09-13T18:59:37.394Z,83.23
2022-09-13T19:02:07.900Z,83.46
2022-09-13T19:04:38.449Z,83.79
2022-09-13T19:07:08.904Z,83.76
2022-09-13T19:09:39.330Z,83.66
2022-09-13T19:12:09.715Z,83.82
2022-09-13T19:14:40.195Z,84.17
2022-09-13T19:17:10.581Z,84.35
2022-09-13T19:19:41.091Z,84.58
2022-09-13T19:22:11.783Z,84.63
2022-09-13T19:24:42.244Z,83.98
2022-09-13T19:27:13.326Z,84.57
2022-09-13T19:29:43.790Z,84.78
2022-09-13T19:32:15.324Z,84.84
2022-09-13T19:34:45.735Z,84.94
2022-09-13T19:37:16.114Z,84.88
2022-09-13T19:39:46.577Z,84.76
2022-09-13T19:42:16.993Z,84.93
2022-09-13T19:44:55.527Z,84.87
2022-09-13T19:49:59.029Z,85.04
2022-09-13T19:52:29.504Z,85.41
2022-09-13T19:54:59.825Z,85.12
2022-09-13T19:57:30.787Z,85.49
2022-09-13T20:00:01.176Z,85.60
2022-09-13T20:02:31.552Z,84.76
2022-09-13T20:05:02.059Z,84.53
2022-09-13T20:07:32.442Z,84.18
2022-09-13T20:10:02.753Z,83.70
2022-09-13T20:12:33.113Z,83.46
2022-09-13T20:15:03.513Z,83.17
2022-09-13T20:17:34.035Z,83.02
2022-09-13T20:20:04.941Z,82.58
2022-09-13T20:22:35.273Z,82.83
2022-09-13T20:25:06.142Z,82.43
2022-09-13T20:27:38.580Z,81.76
2022-09-13T20:30:11.248Z,81.67
2022-09-13T20:32:41.801Z,81.65
2022-09-13T20:35:12.195Z,81.56
2022-09-13T20:37:46.063Z,81.00
2022-09-13T20:40:17.396Z,80.69
2022-09-13T20:42:49.060Z,80.84
2022-09-13T20:45:19.540Z,81.07
2022-09-13T20:47:49.929Z,81.36
2022-09-13T20:50:20.359Z,81.46
2022-09-13T20:52:50.781Z,80.84
2022-09-13T20:55:21.187Z,80.88
2022-09-13T20:57:51.704Z,81.09
2022-09-13T21:00:22.082Z,80.89
2022-09-13T21:02:52.790Z,80.96
2022-09-13T21:05:23.271Z,80.15
2022-09-13T21:08:11.939Z,80.44
2022-09-13T21:10:42.266Z,80.53
2022-09-13T21:13:12.633Z,79.90
2022-09-13T21:15:43.781Z,80.60
2022-09-13T21:18:14.163Z,80.16
2022-09-13T21:20:44.751Z,80.43
2022-09-13T21:23:15.152Z,80.50
2022-09-13T21:25:46.048Z,79.58
2022-09-13T21:28:17.564Z,79.42
2022-09-13T21:30:58.561Z,79.70
2022-09-13T21:33:29.296Z,79.67
2022-09-13T21:36:01.556Z,79.84
2022-09-13T21:38:34.096Z,79.87
2022-09-13T21:41:07.715Z,79.95
2022-09-13T21:43:38.203Z,79.86
2022-09-13T21:46:16.652Z,80.05
2022-09-13T21:48:49.406Z,79.73
2022-09-13T21:51:28.173Z,79.93
2022-09-13T21:54:00.904Z,79.84
2022-09-13T21:56:32.907Z,79.50
2022-09-13T21:59:04.666Z,79.22
2022-09-13T22:01:39.165Z,79.67
2022-09-13T22:04:14.034Z,79.14
2022-09-13T22:06:45.716Z,79.20
2022-09-13T22:09:16.597Z,79.28
2022-09-13T22:11:49.513Z,78.69
2022-09-13T22:14:22.119Z,78.46
2022-09-13T22:16:53.392Z,77.78
2022-09-13T22:19:33.239Z,78.42
2022-09-13T22:22:00.774Z,78.86
2022-09-13T22:24:32.406Z,78.48
2022-09-13T22:27:02.894Z,78.56
2022-09-13T22:29:33.224Z,78.85
2022-09-13T22:32:05.486Z,78.74
2022-09-13T22:34:35.763Z,78.82
2022-09-13T22:37:06.077Z,78.15
2022-09-13T22:39:36.545Z,77.50
2022-09-13T22:42:06.987Z,77.38
2022-09-13T22:44:37.360Z,77.77
2022-09-13T22:47:07.720Z,77.53
2022-09-13T22:49:38.064Z,77.37
2022-09-13T22:52:08.461Z,77.18
2022-09-13T22:54:38.786Z,77.96
2022-09-13T22:57:09.188Z,78.13
2022-09-13T22:59:39.487Z,78.53
2022-09-13T23:02:09.881Z,78.74
2022-09-13T23:04:40.568Z,78.86
2022-09-13T23:07:11.246Z,79.01
2022-09-13T23:09:41.865Z,79.05
2022-09-13T23:12:12.337Z,79.33
2022-09-13T23:14:42.714Z,79.53
2022-09-13T23:17:13.313Z,79.44
2022-09-13T23:19:46.270Z,79.41
2022-09-13T23:22:15.697Z,78.97
2022-09-13T23:24:46.083Z,78.59
2022-09-13T23:27:16.600Z,79.88
2022-09-13T23:29:47.147Z,78.53
2022-09-13T23:32:17.806Z,78.61
2022-09-13T23:34:48.316Z,78.44
2022-09-13T23:37:18.687Z,78.87
2022-09-13T23:39:49.197Z,78.30
2022-09-13T23:42:19.721Z,78.98
2022-09-13T23:44:50.106Z,79.01
2022-09-13T23:47:21.424Z,78.75
2022-09-13T23:49:51.926Z,79.18
2022-09-13T23:52:22.405Z,78.39
2022-09-13T23:54:52.886Z,78.06
2022-09-13T23:57:24.125Z,78.22
2022-09-13T23:59:54.496Z,77.63
